Time;durP1;ratioP1;P1;durP2;ratioP2;P2;SDS_P1;SDS_P2;PMS_P1;PMS_P2;Temp;Humidity;BMP_temperature;BMP_pressure;BME280_temperature;BME280_humidity;BME280_pressure;Samples;Min_cycle;Max_cycle;Signal;HPM_P1;HPM_P2
2022/10/05 00:00:19;;;;;;;;;;;19.80;68.60;;;;;;4430365;32;19971;-79
2022/10/05 00:02:46;;;;;;;;;;;19.80;68.60;;;;;;4429402;32;19979;-79
2022/10/05 00:05:18;;;;;;;;;;;19.80;68.60;;;;;;4429668;32;19998;-79
2022/10/05 00:07:44;;;;;;;;;;;19.80;68.70;;;;;;4429870;32;19983;-79
2022/10/05 00:10:13;;;;;;;;;;;19.80;68.60;;;;;;4429869;32;19990;-79
2022/10/05 00:12:39;;;;;;;;;;;19.80;68.60;;;;;;4429753;32;20060;-79
2022/10/05 00:15:09;;;;;;;;;;;19.80;68.60;;;;;;4428592;32;19991;-79
2022/10/05 00:17:34;;;;;;;;;;;19.80;68.70;;;;;;4429827;32;20049;-79
2022/10/05 00:20:00;;;;;;;;;;;19.80;68.60;;;;;;4429965;32;20108;-79
2022/10/05 00:22:29;;;;;;;;;;;19.80;68.60;;;;;;4429783;32;19981;-79
2022/10/05 00:24:57;;;;;;;;;;;19.80;68.70;;;;;;4429234;32;20021;-79
2022/10/05 00:27:49;;;;;;;;;;;19.80;68.70;;;;;;4428195;32;20017;-79
2022/10/05 00:30:19;;;;;;;;;;;19.80;68.60;;;;;;4428068;32;20108;-79
2022/10/05 00:32:46;;;;;;;;;;;19.80;68.70;;;;;;4429692;32;20057;-79
2022/10/05 00:35:12;;;;;;;;;;;19.80;68.70;;;;;;4429518;32;20037;-79
2022/10/05 00:37:40;;;;;;;;;;;19.80;68.60;;;;;;4415475;32;20432;-79
2022/10/05 00:40:17;;;;;;;;;;;19.70;68.60;;;;;;4429050;32;20520;-79
2022/10/05 00:43:18;;;;;;;;;;;19.80;68.60;;;;;;4429928;32;19978;-79
2022/10/05 00:45:52;;;;;;;;;;;19.70;68.60;;;;;;4397196;32;20189;-79
2022/10/05 00:48:24;;;;;;;;;;;19.70;69.50;;;;;;4424767;32;19990;-79
2022/10/05 00:50:49;;;;;;;;;;;19.70;68.70;;;;;;4415824;32;19975;-79
2022/10/05 00:53:21;;;;;;;;;;;19.70;68.60;;;;;;4429520;32;20376;-79
2022/10/05 00:56:04;;;;;;;;;;;19.70;68.70;;;;;;4429345;32;19978;-79
2022/10/05 00:58:53;;;;;;;;;;;19.70;68.70;;;;;;4429866;32;19982;-79
2022/10/05 01:01:32;;;;;;;;;;;19.70;68.60;;;;;;4413987;32;20328;-79
2022/10/05 01:04:17;;;;;;;;;;;19.70;68.70;;;;;;4429427;32;20168;-79
2022/10/05 01:06:48;;;;;;;;;;;19.70;68.70;;;;;;4432291;32;19990;-79
2022/10/05 01:09:26;;;;;;;;;;;19.70;68.70;;;;;;4432246;32;20057;-79
2022/10/05 01:12:01;;;;;;;;;;;19.70;68.60;;;;;;4432701;32;19971;-79
2022/10/05 01:14:31;;;;;;;;;;;19.70;68.70;;;;;;4432290;32;20396;-79
2022/10/05 01:17:06;;;;;;;;;;;19.70;68.70;;;;;;4432652;32;19994;-79
2022/10/05 01:19:51;;;;;;;;;;;19.70;68.70;;;;;;4431847;32;20010;-79
2022/10/05 01:22:19;;;;;;;;;;;19.70;68.60;;;;;;4418390;32;19986;-79
2022/10/05 01:25:04;;;;;;;;;;;19.70;68.60;;;;;;4431954;32;19989;-79
2022/10/05 01:27:53;;;;;;;;;;;19.70;68.60;;;;;;4432188;32;19989;-79
2022/10/05 01:30:20;;;;;;;;;;;19.70;68.60;;;;;;4417755;32;19983;-79
2022/10/05 01:32:46;;;;;;;;;;;19.70;68.70;;;;;;4432291;32;19979;-79
2022/10/05 01:35:18;;;;;;;;;;;19.70;68.70;;;;;;4432137;32;20476;-79
2022/10/05 01:38:05;;;;;;;;;;;19.60;68.60;;;;;;4432032;32;19996;-79
2022/10/05 01:40:39;;;;;;;;;;;19.70;68.70;;;;;;4414902;32;19986;-79
2022/10/05 01:43:05;;;;;;;;;;;19.60;68.60;;;;;;4431786;32;19970;-79
2022/10/05 01:45:43;;;;;;;;;;;19.60;68.50;;;;;;4431406;32;19981;-79
2022/10/05 01:48:12;;;;;;;;;;;19.60;68.50;;;;;;4418099;32;20018;-79
2022/10/05 01:50:44;;;;;;;;;;;19.60;68.60;;;;;;4431635;32;19991;-79
2022/10/05 01:53:28;;;;;;;;;;;19.60;68.60;;;;;;4431545;32;20340;-79
2022/10/05 01:56:21;;;;;;;;;;;19.60;68.60;;;;;;4431467;32;20019;-79
2022/10/05 01:58:49;;;;;;;;;;;19.60;68.60;;;;;;4429056;32;20464;-79
2022/10/05 02:01:15;;;;;;;;;;;19.60;68.60;;;;;;4431362;32;20001;-79
2022/10/05 02:03:44;;;;;;;;;;;19.60;68.60;;;;;;4430819;32;19983;-79
2022/10/05 02:06:12;;;;;;;;;;;19.60;68.60;;;;;;4430433;32;19983;-79
2022/10/05 02:08:42;;;;;;;;;;;19.60;68.60;;;;;;4430890;32;20550;-79
2022/10/05 02:11:09;;;;;;;;;;;19.60;68.70;;;;;;4431263;32;19979;-79
2022/10/05 02:13:38;;;;;;;;;;;19.60;68.60;;;;;;4431071;32;20463;-79
2022/10/05 02:16:07;;;;;;;;;;;19.60;68.60;;;;;;4414415;32;20052;-79
2022/10/05 02:18:37;;;;;;;;;;;19.60;68.60;;;;;;4431125;32;19978;-79
2022/10/05 02:21:03;;;;;;;;;;;19.60;68.60;;;;;;4430947;32;19979;-78
2022/10/05 02:23:31;;;;;;;;;;;19.60;68.60;;;;;;4431027;32;19967;-79
2022/10/05 02:25:57;;;;;;;;;;;19.60;68.60;;;;;;4431188;32;21499;-79
2022/10/05 02:28:45;;;;;;;;;;;19.60;68.60;;;;;;4428891;32;20076;-78
2022/10/05 02:31:32;;;;;;;;;;;19.60;68.60;;;;;;4430260;32;20025;-79
2022/10/05 02:34:16;;;;;;;;;;;19.60;68.60;;;;;;4423936;32;20039;-78
2022/10/05 02:36:42;;;;;;;;;;;19.60;68.60;;;;;;4430153;32;19982;-78
2022/10/05 02:39:12;;;;;;;;;;;19.60;68.60;;;;;;4430253;32;19974;-79
2022/10/05 02:41:37;;;;;;;;;;;19.60;68.70;;;;;;4430211;32;20042;-79
2022/10/05 02:44:03;;;;;;;;;;;19.60;68.70;;;;;;4430132;32;19994;-79
2022/10/05 02:46:35;;;;;;;;;;;19.60;68.60;;;;;;4430176;32;20172;-79
2022/10/05 02:49:01;;;;;;;;;;;19.60;68.70;;;;;;4430972;32;20391;-79
2022/10/05 02:51:30;;;;;;;;;;;19.60;68.60;;;;;;4430662;32;20377;-79
2022/10/05 02:54:03;;;;;;;;;;;19.60;68.60;;;;;;4430436;32;19989;-79
2022/10/05 02:56:34;;;;;;;;;;;19.60;68.60;;;;;;4430554;32;20002;-79
2022/10/05 02:59:03;;;;;;;;;;;19.60;68.70;;;;;;4431105;32;20056;-79
2022/10/05 03:01:28;;;;;;;;;;;19.60;68.70;;;;;;4430757;32;19979;-79
2022/10/05 03:04:03;;;;;;;;;;;19.60;68.60;;;;;;4430986;32;20006;-79
2022/10/05 03:06:32;;;;;;;;;;;19.60;68.60;;;;;;4427716;32;20045;-79
2022/10/05 03:09:03;;;;;;;;;;;19.60;68.70;;;;;;4429676;32;20041;-79
2022/10/05 03:11:47;;;;;;;;;;;19.60;68.60;;;;;;4429420;32;20407;-79
2022/10/05 03:14:18;;;;;;;;;;;19.50;68.60;;;;;;4430511;32;20089;-79
2022/10/05 03:16:51;;;;;;;;;;;19.50;68.60;;;;;;4429594;32;20041;-79
2022/10/05 03:19:29;;;;;;;;;;;19.50;68.60;;;;;;4429820;32;20192;-79
2022/10/05 03:22:01;;;;;;;;;;;19.50;68.60;;;;;;4430095;32;19995;-78
2022/10/05 03:24:35;;;;;;;;;;;19.50;68.60;;;;;;4425960;32;20128;-79
2022/10/05 03:27:07;;;;;;;;;;;19.50;68.70;;;;;;4429872;32;19982;-79
2022/10/05 03:29:53;;;;;;;;;;;19.50;68.60;;;;;;4429437;32;20324;-79
2022/10/05 03:32:26;;;;;;;;;;;19.50;68.60;;;;;;4424138;32;19990;-79
2022/10/05 03:35:00;;;;;;;;;;;19.50;68.70;;;;;;4429851;32;19990;-78
2022/10/05 03:37:34;;;;;;;;;;;19.50;68.70;;;;;;4430175;32;20132;-79
2022/10/05 03:40:09;;;;;;;;;;;19.50;68.60;;;;;;4415075;32;19983;-79
2022/10/05 03:42:43;;;;;;;;;;;19.50;68.60;;;;;;4430295;32;20029;-78
2022/10/05 03:45:29;;;;;;;;;;;19.50;68.70;;;;;;4429745;32;19986;-79
2022/10/05 03:48:08;;;;;;;;;;;19.50;68.70;;;;;;4429981;32;20081;-79
2022/10/05 03:50:44;;;;;;;;;;;19.50;68.60;;;;;;4424813;32;20173;-79
2022/10/05 03:53:13;;;;;;;;;;;19.50;68.60;;;;;;4429780;32;20040;-78
2022/10/05 03:55:52;;;;;;;;;;;19.50;68.60;;;;;;4428588;32;20405;-78
2022/10/05 03:58:24;;;;;;;;;;;19.50;68.70;;;;;;4429252;32;20042;-79
2022/10/05 04:00:52;;;;;;;;;;;19.50;68.70;;;;;;4428494;32;20436;-79
2022/10/05 04:03:20;;;;;;;;;;;19.50;68.70;;;;;;4429065;32;20337;-79
2022/10/05 04:05:49;;;;;;;;;;;19.50;68.70;;;;;;4428506;32;19998;-78
2022/10/05 04:08:30;;;;;;;;;;;19.50;68.70;;;;;;4429066;32;20015;-79
2022/10/05 04:11:03;;;;;;;;;;;19.50;68.70;;;;;;4429122;32;20041;-79
2022/10/05 04:13:37;;;;;;;;;;;19.50;68.70;;;;;;4428679;32;20262;-78
2022/10/05 04:16:07;;;;;;;;;;;19.50;68.70;;;;;;4402645;32;19986;-79
2022/10/05 04:18:36;;;;;;;;;;;19.50;68.70;;;;;;4428515;32;20100;-79
2022/10/05 04:21:08;;;;;;;;;;;19.50;68.70;;;;;;4428476;32;20061;-79
2022/10/05 04:23:44;;;;;;;;;;;19.50;68.70;;;;;;4428477;32;20153;-78
2022/10/05 04:26:13;;;;;;;;;;;19.50;68.70;;;;;;4428663;32;19991;-79
2022/10/05 04:28:59;;;;;;;;;;;19.50;68.70;;;;;;4427141;32;20002;-78
2022/10/05 04:31:40;;;;;;;;;;;19.50;68.70;;;;;;4427968;32;20066;-78
2022/10/05 04:34:13;;;;;;;;;;;19.40;68.60;;;;;;4428557;32;20431;-78
2022/10/05 04:36:44;;;;;;;;;;;19.50;68.70;;;;;;4428493;32;19990;-78
2022/10/05 04:39:10;;;;;;;;;;;19.40;68.60;;;;;;4428990;32;20420;-79
2022/10/05 04:41:42;;;;;;;;;;;19.50;68.70;;;;;;4431189;32;20057;-78
2022/10/05 04:44:25;;;;;;;;;;;19.50;68.70;;;;;;4431626;32;19975;-79
2022/10/05 04:47:06;;;;;;;;;;;19.40;68.60;;;;;;4430294;32;20496;-78
2022/10/05 04:49:32;;;;;;;;;;;19.40;68.60;;;;;;4418597;32;20065;-78
2022/10/05 04:52:16;;;;;;;;;;;19.40;68.60;;;;;;4432213;32;20436;-79
2022/10/05 04:55:01;;;;;;;;;;;19.40;68.60;;;;;;4432505;32;19982;-78
2022/10/05 04:57:27;;;;;;;;;;;19.40;68.60;;;;;;4418681;32;19978;-79
2022/10/05 04:59:58;;;;;;;;;;;19.40;68.60;;;;;;4432321;32;19982;-79
2022/10/05 05:02:33;;;;;;;;;;;19.40;68.60;;;;;;4432333;32;20121;-78
2022/10/05 05:05:15;;;;;;;;;;;19.40;68.60;;;;;;4431934;32;20344;-79
2022/10/05 05:07:47;;;;;;;;;;;19.40;68.60;;;;;;4432534;32;19979;-78
2022/10/05 05:10:22;;;;;;;;;;;19.40;68.70;;;;;;4432387;32;20097;-79
2022/10/05 05:13:03;;;;;;;;;;;19.40;68.60;;;;;;4432387;32;19994;-78
2022/10/05 05:15:50;;;;;;;;;;;19.40;68.60;;;;;;4427872;32;20405;-78
2022/10/05 05:18:39;;;;;;;;;;;19.40;68.70;;;;;;4432140;32;20113;-78
2022/10/05 05:21:05;;;;;;;;;;;19.40;68.60;;;;;;4409721;32;20058;-78
2022/10/05 05:23:43;;;;;;;;;;;19.40;68.60;;;;;;4431616;32;20014;-78
2022/10/05 05:26:11;;;;;;;;;;;19.40;68.60;;;;;;4432217;32;19974;-78
2022/10/05 05:28:41;;;;;;;;;;;19.40;68.60;;;;;;4432457;32;19997;-78
2022/10/05 05:31:23;;;;;;;;;;;19.40;68.60;;;;;;4431873;32;20003;-78
2022/10/05 05:34:09;;;;;;;;;;;19.40;68.60;;;;;;4431650;32;20112;-78
2022/10/05 05:36:53;;;;;;;;;;;19.40;68.60;;;;;;4430838;32;20021;-79
2022/10/05 05:39:24;;;;;;;;;;;19.40;68.60;;;;;;4432145;32;19978;-79
2022/10/05 05:42:00;;;;;;;;;;;19.40;68.60;;;;;;4430571;32;20003;-79
2022/10/05 05:44:27;;;;;;;;;;;19.40;68.60;;;;;;4431592;32;20433;-78
2022/10/05 05:47:01;;;;;;;;;;;19.40;68.60;;;;;;4421125;32;20351;-79
2022/10/05 05:49:50;;;;;;;;;;;19.40;68.60;;;;;;4438711;32;20122;-79
2022/10/05 05:52:24;;;;;;;;;;;19.40;68.60;;;;;;4431772;32;20341;-79
2022/10/05 05:54:58;;;;;;;;;;;19.40;69.50;;;;;;4431641;32;19986;-78
2022/10/05 05:57:24;;;;;;;;;;;19.40;68.60;;;;;;4430759;32;20061;-79
2022/10/05 05:59:59;;;;;;;;;;;19.40;68.60;;;;;;4431503;32;19975;-78
2022/10/05 06:02:33;;;;;;;;;;;19.40;68.60;;;;;;4430932;32;20019;-79
2022/10/05 06:05:05;;;;;;;;;;;19.40;68.60;;;;;;4431643;32;20069;-79
2022/10/05 06:07:31;;;;;;;;;;;19.40;68.60;;;;;;4431271;32;19987;-78
2022/10/05 06:10:15;;;;;;;;;;;19.40;68.60;;;;;;4431688;32;19990;-78
2022/10/05 06:12:44;;;;;;;;;;;19.40;68.60;;;;;;4431519;32;19990;-79
2022/10/05 06:15:15;;;;;;;;;;;19.30;68.60;;;;;;4431679;32;20061;-78
2022/10/05 06:17:49;;;;;;;;;;;19.30;68.60;;;;;;4431422;32;20064;-78
2022/10/05 06:20:35;;;;;;;;;;;19.30;68.50;;;;;;4431559;32;20349;-78
2022/10/05 06:23:02;;;;;;;;;;;19.40;68.60;;;;;;4429059;32;20474;-80
2022/10/05 06:25:34;;;;;;;;;;;19.30;68.60;;;;;;4431730;32;20057;-80
2022/10/05 06:28:10;;;;;;;;;;;19.30;68.60;;;;;;4431345;32;20039;-80
2022/10/05 06:30:42;;;;;;;;;;;19.30;68.40;;;;;;4417779;32;20061;-81
2022/10/05 06:33:13;;;;;;;;;;;19.30;68.20;;;;;;4417230;32;20400;-80
2022/10/05 06:36:18;;;;;;;;;;;19.30;68.30;;;;;;4431305;32;19990;-81
2022/10/05 06:38:50;;;;;;;;;;;19.30;68.60;;;;;;4399131;32;19975;-81
2022/10/05 06:41:16;;;;;;;;;;;19.30;68.70;;;;;;4399142;32;20410;-82
2022/10/05 06:43:59;;;;;;;;;;;19.30;68.70;;;;;;4415340;32;19990;-82
2022/10/05 06:46:30;;;;;;;;;;;19.30;68.70;;;;;;4431295;32;20104;-81
2022/10/05 06:48:55;;;;;;;;;;;19.30;68.70;;;;;;4431448;32;20106;-80
2022/10/05 06:51:41;;;;;;;;;;;19.30;68.80;;;;;;4431088;32;19986;-81
2022/10/05 06:54:07;;;;;;;;;;;19.30;68.80;;;;;;4421811;32;20526;-82
2022/10/05 06:56:40;;;;;;;;;;;19.30;68.90;;;;;;4431210;32;19989;-81
2022/10/05 06:59:24;;;;;;;;;;;19.30;68.90;;;;;;4421238;32;20340;-81
2022/10/05 07:01:59;;;;;;;;;;;19.30;68.90;;;;;;4430377;32;20002;-80
2022/10/05 07:04:31;;;;;;;;;;;19.30;68.90;;;;;;4430862;32;20144;-78
2022/10/05 07:06:59;;;;;;;;;;;19.30;68.90;;;;;;4430631;32;20089;-80
2022/10/05 07:09:25;;;;;;;;;;;19.30;69.00;;;;;;4431252;32;20022;-80
2022/10/05 07:11:55;;;;;;;;;;;19.30;68.90;;;;;;4430928;32;19963;-83
2022/10/05 07:14:41;;;;;;;;;;;19.30;68.90;;;;;;4430171;32;20049;-79
2022/10/05 07:17:19;;;;;;;;;;;19.30;68.90;;;;;;4429628;32;20427;-80
2022/10/05 07:20:03;;;;;;;;;;;19.30;69.00;;;;;;4430309;32;20735;-81
2022/10/05 07:22:34;;;;;;;;;;;19.40;69.00;;;;;;4429957;32;19982;-80
2022/10/05 07:25:07;;;;;;;;;;;19.30;69.00;;;;;;4429095;32;19990;-80
2022/10/05 07:27:34;;;;;;;;;;;19.40;69.00;;;;;;4430097;32;20329;-79
2022/10/05 07:30:00;;;;;;;;;;;19.30;69.00;;;;;;4430057;32;19974;-81
2022/10/05 07:32:49;;;;;;;;;;;19.40;69.00;;;;;;4429869;32;20032;-80
2022/10/05 07:38:18;;;;;;;;;;;19.40;69.20;;;;;;4427970;32;19975;-79
2022/10/05 07:40:56;;;;;;;;;;;19.40;69.10;;;;;;4429675;32;19983;-81
2022/10/05 07:43:45;;;;;;;;;;;19.40;69.10;;;;;;4429694;32;19986;-80
2022/10/05 07:46:11;;;;;;;;;;;19.40;69.10;;;;;;4424508;32;20001;-79
2022/10/05 07:48:37;;;;;;;;;;;19.40;69.10;;;;;;4429153;32;20286;-82
2022/10/05 07:51:02;;;;;;;;;;;19.40;69.00;;;;;;4430260;32;19971;-80
2022/10/05 07:53:46;;;;;;;;;;;19.40;69.10;;;;;;4429405;32;19971;-81
2022/10/05 07:56:15;;;;;;;;;;;19.40;69.00;;;;;;4429539;32;20332;-82
2022/10/05 07:58:46;;;;;;;;;;;19.40;69.00;;;;;;4429431;32;20385;-80
2022/10/05 08:01:18;;;;;;;;;;;19.40;69.10;;;;;;4427295;32;20034;-78
2022/10/05 08:03:44;;;;;;;;;;;19.40;69.10;;;;;;4426908;32;20401;-81
2022/10/05 08:06:13;;;;;;;;;;;19.40;69.20;;;;;;4429333;32;20069;-82
2022/10/05 08:08:39;;;;;;;;;;;19.40;69.10;;;;;;4430373;32;19989;-82
2022/10/05 08:11:28;;;;;;;;;;;19.40;69.10;;;;;;4428656;32;20026;-84
2022/10/05 08:13:58;;;;;;;;;;;19.40;69.10;;;;;;4430019;32;19983;-78
2022/10/05 08:16:26;;;;;;;;;;;19.40;69.10;;;;;;4429503;32;20401;-80
2022/10/05 08:19:10;;;;;;;;;;;19.40;69.00;;;;;;4428448;32;20424;-82
2022/10/05 08:21:38;;;;;;;;;;;19.40;68.90;;;;;;4429216;32;20041;-81
2022/10/05 08:24:23;;;;;;;;;;;19.40;69.80;;;;;;4429347;32;19991;-81
2022/10/05 08:26:58;;;;;;;;;;;19.40;68.90;;;;;;4429666;32;19979;-83
2022/10/05 08:29:31;;;;;;;;;;;19.40;68.90;;;;;;4439040;32;20066;-82
2022/10/05 08:32:00;;;;;;;;;;;19.40;68.90;;;;;;4429745;32;20097;-84
2022/10/05 08:34:26;;;;;;;;;;;19.50;69.00;;;;;;4429782;32;19979;-82
2022/10/05 08:37:11;;;;;;;;;;;19.50;69.10;;;;;;4429539;32;19973;-85
2022/10/05 08:39:43;;;;;;;;;;;19.50;69.10;;;;;;4429598;32;19983;-82
2022/10/05 08:42:31;;;;;;;;;;;19.50;69.10;;;;;;4429935;32;20365;-82
2022/10/05 08:45:06;;;;;;;;;;;19.50;69.10;;;;;;4429386;32;20009;-83
2022/10/05 08:47:39;;;;;;;;;;;19.50;69.20;;;;;;4430042;32;19990;-83
2022/10/05 08:50:23;;;;;;;;;;;19.50;69.10;;;;;;4429624;32;20456;-81
2022/10/05 08:53:01;;;;;;;;;;;19.50;69.10;;;;;;4429427;32;19986;-81
2022/10/05 08:55:45;;;;;;;;;;;19.50;69.10;;;;;;4428725;32;19986;-81
2022/10/05 08:58:17;;;;;;;;;;;19.50;69.10;;;;;;4429815;32;19987;-80
2022/10/05 09:00:42;;;;;;;;;;;19.50;69.10;;;;;;4420518;32;20527;-81
2022/10/05 09:03:27;;;;;;;;;;;19.50;69.10;;;;;;4429451;32;19967;-79
2022/10/05 09:06:04;;;;;;;;;;;19.60;69.20;;;;;;4420755;32;19971;-80
2022/10/05 09:08:30;;;;;;;;;;;19.60;69.20;;;;;;4429460;32;20412;-81
2022/10/05 09:11:16;;;;;;;;;;;19.60;69.30;;;;;;4428664;32;19963;-80
2022/10/05 09:13:47;;;;;;;;;;;19.60;69.30;;;;;;4428276;32;19986;-81
2022/10/05 09:16:29;;;;;;;;;;;19.60;69.30;;;;;;4429586;32;19994;-81
2022/10/05 09:19:13;;;;;;;;;;;19.60;69.20;;;;;;4429202;32;19995;-74
2022/10/05 09:21:58;;;;;;;;;;;19.60;69.30;;;;;;4429425;32;19983;-74
2022/10/05 09:24:23;;;;;;;;;;;19.60;69.20;;;;;;4440732;32;20061;-81
2022/10/05 09:26:58;;;;;;;;;;;19.60;69.20;;;;;;4431910;32;19967;-80
2022/10/05 09:29:35;;;;;;;;;;;19.60;69.10;;;;;;4431733;32;19990;-80
2022/10/05 09:32:14;;;;;;;;;;;19.60;69.10;;;;;;4430347;32;19975;-79
2022/10/05 09:34:58;;;;;;;;;;;19.60;69.10;;;;;;4432066;32;19987;-79
2022/10/05 09:37:30;;;;;;;;;;;19.60;68.50;;;;;;4432234;32;20090;-79
2022/10/05 09:40:15;;;;;;;;;;;19.70;68.30;;;;;;4431429;32;19987;-80
2022/10/05 09:42:59;;;;;;;;;;;19.70;68.40;;;;;;4431659;32;19989;-80
2022/10/05 09:45:43;;;;;;;;;;;19.70;68.10;;;;;;4430859;32;20018;-79
2022/10/05 09:48:28;;;;;;;;;;;19.70;68.10;;;;;;4431592;32;20112;-80
2022/10/05 09:51:12;;;;;;;;;;;19.80;67.80;;;;;;4431726;32;19983;-79
2022/10/05 09:53:47;;;;;;;;;;;19.80;67.80;;;;;;4430393;32;20058;-79
2022/10/05 09:56:18;;;;;;;;;;;19.80;67.80;;;;;;4431710;32;20034;-78
2022/10/05 09:58:54;;;;;;;;;;;19.80;67.80;;;;;;4430538;32;20035;-78
2022/10/05 10:01:31;;;;;;;;;;;19.90;67.70;;;;;;4417738;32;19989;-78
2022/10/05 10:04:09;;;;;;;;;;;19.90;67.70;;;;;;4431681;32;20113;-75
2022/10/05 10:06:38;;;;;;;;;;;19.90;67.60;;;;;;4431164;32;19979;-77
2022/10/05 10:09:19;;;;;;;;;;;19.90;67.60;;;;;;4431240;32;19986;-76
2022/10/05 10:11:48;;;;;;;;;;;19.90;67.60;;;;;;4431101;32;20449;-78
2022/10/05 10:14:40;;;;;;;;;;;19.90;67.50;;;;;;4430493;32;19983;-77
2022/10/05 10:17:06;;;;;;;;;;;20.00;67.60;;;;;;4431086;32;20022;-79
2022/10/05 10:19:47;;;;;;;;;;;20.00;67.70;;;;;;4431028;32;20081;-78
2022/10/05 10:22:16;;;;;;;;;;;20.00;67.70;;;;;;4430845;32;19974;-78
2022/10/05 10:25:05;;;;;;;;;;;20.00;67.60;;;;;;4430742;32;20169;-77
2022/10/05 10:27:52;;;;;;;;;;;20.00;67.60;;;;;;4431041;32;20421;-78
2022/10/05 10:30:18;;;;;;;;;;;20.00;67.60;;;;;;4430577;32;19994;-77
2022/10/05 10:32:59;;;;;;;;;;;20.00;67.60;;;;;;4430696;32;20049;-83
2022/10/05 10:35:34;;;;;;;;;;;20.00;67.60;;;;;;4430180;32;20145;-81
2022/10/05 10:38:01;;;;;;;;;;;20.00;67.60;;;;;;4435206;32;19987;-82
2022/10/05 10:40:41;;;;;;;;;;;20.00;67.70;;;;;;4417493;32;20301;-82
2022/10/05 10:43:25;;;;;;;;;;;20.00;67.60;;;;;;4431240;32;19983;-82
2022/10/05 10:46:09;;;;;;;;;;;20.00;67.80;;;;;;4431081;32;19990;-85
2022/10/05 10:48:39;;;;;;;;;;;20.00;67.90;;;;;;4430984;32;20441;-79
2022/10/05 10:51:05;;;;;;;;;;;20.00;68.10;;;;;;4418600;32;19997;-83
2022/10/05 10:53:36;;;;;;;;;;;20.00;68.00;;;;;;4416838;32;19967;-81
2022/10/05 10:56:21;;;;;;;;;;;20.00;68.20;;;;;;4431385;32;20393;-71
2022/10/05 10:58:47;;;;;;;;;;;20.00;68.10;;;;;;4430409;32;20061;-78
2022/10/05 11:01:31;;;;;;;;;;;19.90;68.10;;;;;;4430498;32;19987;-80
2022/10/05 11:04:16;;;;;;;;;;;19.90;68.20;;;;;;4430758;32;19979;-80
2022/10/05 11:07:00;;;;;;;;;;;19.90;68.20;;;;;;4429933;32;20060;-82
2022/10/05 11:09:41;;;;;;;;;;;19.90;68.20;;;;;;4430494;32;20022;-83
2022/10/05 11:12:20;;;;;;;;;;;19.90;68.20;;;;;;4428412;32;20432;-84
2022/10/05 11:14:55;;;;;;;;;;;19.90;68.20;;;;;;4430931;32;20052;-85
2022/10/05 11:17:40;;;;;;;;;;;19.90;68.30;;;;;;4431003;32;19978;-83
2022/10/05 11:20:24;;;;;;;;;;;19.90;68.50;;;;;;4417119;32;20066;-82
2022/10/05 11:22:59;;;;;;;;;;;19.90;68.50;;;;;;4430789;32;19991;-84
2022/10/05 11:25:24;;;;;;;;;;;19.80;68.40;;;;;;4417429;32;20057;-83
2022/10/05 11:27:53;;;;;;;;;;;19.80;68.40;;;;;;4431224;32;19983;-83
2022/10/05 11:30:20;;;;;;;;;;;19.80;68.30;;;;;;4430043;32;20499;-82
2022/10/05 11:32:49;;;;;;;;;;;19.80;68.40;;;;;;4423334;32;20031;-82
2022/10/05 11:35:33;;;;;;;;;;;19.80;68.30;;;;;;4426603;32;20567;-81
2022/10/05 11:38:18;;;;;;;;;;;19.80;68.30;;;;;;4430543;32;20384;-84
2022/10/05 11:40:43;;;;;;;;;;;19.80;68.40;;;;;;4430842;32;19979;-84
2022/10/05 11:43:18;;;;;;;;;;;19.80;68.30;;;;;;4430408;32;19967;-82
2022/10/05 11:45:58;;;;;;;;;;;19.80;68.30;;;;;;4430680;32;20015;-81
2022/10/05 11:48:38;;;;;;;;;;;19.80;68.30;;;;;;4430754;32;19991;-85
2022/10/05 11:51:22;;;;;;;;;;;19.80;68.30;;;;;;4429316;32;20392;-84
2022/10/05 11:54:20;;;;;;;;;;;19.80;68.40;;;;;;4430022;32;20400;-86
2022/10/05 11:56:57;;;;;;;;;;;19.80;68.40;;;;;;4418984;32;20066;-84
2022/10/05 11:59:33;;;;;;;;;;;19.80;68.50;;;;;;4429998;32;19985;-83
2022/10/05 12:02:23;;;;;;;;;;;19.80;68.50;;;;;;4416191;32;20105;-84
2022/10/05 12:04:49;;;;;;;;;;;19.80;68.60;;;;;;4429593;32;19991;-81
2022/10/05 12:07:18;;;;;;;;;;;19.80;68.50;;;;;;4429820;32;20085;-84
2022/10/05 12:10:16;;;;;;;;;;;19.80;68.60;;;;;;4430043;32;20102;-84
2022/10/05 12:12:44;;;;;;;;;;;19.80;68.70;;;;;;4429647;32;19971;-78
2022/10/05 12:15:13;;;;;;;;;;;19.80;68.70;;;;;;4429567;32;19975;-78
2022/10/05 12:18:05;;;;;;;;;;;19.80;68.70;;;;;;4429714;32;19990;-79
2022/10/05 12:20:57;;;;;;;;;;;19.80;68.80;;;;;;4427424;32;20404;-79
2022/10/05 12:23:29;;;;;;;;;;;19.80;68.80;;;;;;4429052;32;19985;-77
2022/10/05 12:26:01;;;;;;;;;;;19.80;68.80;;;;;;4429571;32;20001;-79
2022/10/05 12:28:46;;;;;;;;;;;19.80;68.90;;;;;;4429084;32;20117;-80
2022/10/05 12:31:11;;;;;;;;;;;19.80;69.00;;;;;;4429054;32;20050;-83
2022/10/05 12:33:56;;;;;;;;;;;19.80;69.00;;;;;;4429933;32;19981;-79
2022/10/05 12:36:45;;;;;;;;;;;19.80;69.00;;;;;;4429920;32;19974;-78
2022/10/05 12:39:29;;;;;;;;;;;19.80;69.20;;;;;;4406790;32;20328;-78
2022/10/05 12:42:03;;;;;;;;;;;19.80;69.20;;;;;;4429429;32;19990;-79
2022/10/05 12:44:48;;;;;;;;;;;19.80;69.40;;;;;;4429199;32;20044;-81
2022/10/05 12:47:22;;;;;;;;;;;19.80;69.30;;;;;;4428694;32;20061;-78
2022/10/05 12:49:53;;;;;;;;;;;19.80;69.40;;;;;;4425003;32;19983;-79
2022/10/05 12:52:37;;;;;;;;;;;19.80;69.40;;;;;;4428456;32;20061;-79
2022/10/05 12:55:09;;;;;;;;;;;19.80;69.40;;;;;;4428717;32;19978;-78
2022/10/05 12:57:35;;;;;;;;;;;19.80;69.60;;;;;;4429219;32;19986;-80
2022/10/05 13:00:00;;;;;;;;;;;19.80;69.50;;;;;;4430880;32;20048;-79
2022/10/05 13:02:41;;;;;;;;;;;19.80;69.60;;;;;;4432823;32;20033;-79
2022/10/05 13:05:09;;;;;;;;;;;19.80;69.60;;;;;;4426473;32;20567;-86
2022/10/05 13:07:45;;;;;;;;;;;19.80;69.60;;;;;;4431052;32;20436;-82
2022/10/05 13:10:15;;;;;;;;;;;19.90;69.70;;;;;;4426556;32;20053;-81
2022/10/05 13:12:47;;;;;;;;;;;19.80;69.70;;;;;;4431877;32;19982;-82
2022/10/05 13:15:25;;;;;;;;;;;19.80;69.50;;;;;;4431530;32;20005;-81
2022/10/05 13:17:51;;;;;;;;;;;19.80;69.60;;;;;;4431794;32;19987;-83
2022/10/05 13:20:28;;;;;;;;;;;19.80;69.60;;;;;;4431674;32;20038;-80
2022/10/05 13:23:14;;;;;;;;;;;19.80;69.70;;;;;;4442223;32;20054;-83
2022/10/05 13:25:47;;;;;;;;;;;19.80;69.60;;;;;;4431010;32;20093;-86
2022/10/05 13:28:18;;;;;;;;;;;19.90;69.60;;;;;;4430790;32;20022;-83
2022/10/05 13:30:50;;;;;;;;;;;19.80;69.70;;;;;;4431204;32;19966;-82
2022/10/05 13:33:23;;;;;;;;;;;19.80;69.70;;;;;;4430981;32;19994;-79
2022/10/05 13:35:55;;;;;;;;;;;19.90;69.80;;;;;;4416921;32;19987;-80
2022/10/05 13:38:21;;;;;;;;;;;19.80;69.70;;;;;;4430828;32;20129;-81
2022/10/05 13:41:07;;;;;;;;;;;19.90;69.80;;;;;;4430986;32;19987;-80
2022/10/05 13:43:37;;;;;;;;;;;19.80;69.60;;;;;;4421735;32;20128;-80
2022/10/05 13:46:09;;;;;;;;;;;19.90;69.70;;;;;;4430628;32;20081;-79
2022/10/05 13:48:45;;;;;;;;;;;19.90;69.80;;;;;;4430443;32;20393;-78
2022/10/05 13:51:17;;;;;;;;;;;19.90;69.70;;;;;;4430901;32;20041;-79
2022/10/05 13:53:43;;;;;;;;;;;19.90;69.40;;;;;;4430647;32;20108;-79
2022/10/05 13:56:27;;;;;;;;;;;19.90;69.30;;;;;;4428777;32;19989;-78
2022/10/05 13:59:11;;;;;;;;;;;19.90;68.90;;;;;;4428497;32;20026;-76
2022/10/05 14:01:40;;;;;;;;;;;19.90;68.90;;;;;;4430699;32;20149;-77
2022/10/05 14:04:18;;;;;;;;;;;19.90;68.80;;;;;;4428515;32;20041;-77
2022/10/05 14:06:44;;;;;;;;;;;19.90;68.70;;;;;;4430205;32;20057;-76
2022/10/05 14:09:20;;;;;;;;;;;19.90;68.70;;;;;;4431176;32;20022;-76
2022/10/05 14:12:04;;;;;;;;;;;19.90;68.50;;;;;;4430787;32;20088;-76
2022/10/05 14:14:31;;;;;;;;;;;19.90;68.40;;;;;;4428553;32;20117;-76
2022/10/05 14:16:58;;;;;;;;;;;19.90;68.30;;;;;;4416753;32;20376;-77
2022/10/05 14:19:25;;;;;;;;;;;19.90;68.20;;;;;;4430668;32;20038;-77
2022/10/05 14:22:00;;;;;;;;;;;19.90;68.20;;;;;;4431384;32;19998;-77
2022/10/05 14:24:30;;;;;;;;;;;19.90;68.10;;;;;;4429752;32;20061;-77
2022/10/05 14:26:57;;;;;;;;;;;19.90;68.10;;;;;;4429612;32;20042;-79
2022/10/05 14:29:24;;;;;;;;;;;19.90;68.10;;;;;;4430801;32;20116;-77
2022/10/05 14:31:57;;;;;;;;;;;19.90;68.10;;;;;;4431861;32;19975;-78
2022/10/05 14:34:33;;;;;;;;;;;19.90;68.10;;;;;;4431844;32;20057;-79
2022/10/05 14:37:19;;;;;;;;;;;19.90;68.00;;;;;;4431506;32;19971;-80
2022/10/05 14:39:49;;;;;;;;;;;19.90;68.10;;;;;;4431799;32;20116;-79
2022/10/05 14:42:19;;;;;;;;;;;19.90;68.00;;;;;;4414575;32;19982;-78
2022/10/05 14:44:58;;;;;;;;;;;19.90;68.00;;;;;;4416491;32;19982;-83
2022/10/05 14:47:26;;;;;;;;;;;19.90;68.00;;;;;;4431225;32;20495;-78
2022/10/05 14:50:14;;;;;;;;;;;19.90;68.00;;;;;;4431049;32;19998;-77
2022/10/05 14:52:42;;;;;;;;;;;19.90;68.10;;;;;;4430201;32;20041;-80
2022/10/05 14:55:26;;;;;;;;;;;19.90;68.10;;;;;;4430681;32;20143;-80
2022/10/05 14:58:01;;;;;;;;;;;19.90;68.10;;;;;;4426287;32;19994;-79
2022/10/05 15:00:27;;;;;;;;;;;19.90;68.00;;;;;;4430081;32;20026;-82
2022/10/05 15:03:07;;;;;;;;;;;19.90;67.90;;;;;;4411340;32;42161;-82